createdAt,value
2023-04-12T00:00:11.727Z,9.90
2023-04-12T00:02:39.729Z,8.93
2023-04-12T00:05:09.405Z,9.25
2023-04-12T00:07:35.984Z,8.38
2023-04-12T00:10:03.137Z,8.30
2023-04-12T00:12:29.504Z,8.70
2023-04-12T00:14:56.050Z,9.25
2023-04-12T00:17:22.439Z,9.75
2023-04-12T00:19:49.962Z,11.27
2023-04-12T00:22:16.781Z,8.80
2023-04-12T00:24:43.568Z,8.88
2023-04-12T00:27:09.997Z,10.63
2023-04-12T00:29:36.387Z,10.43
2023-04-12T00:32:03.834Z,10.70
2023-04-12T00:34:30.416Z,11.38
2023-04-12T00:36:56.756Z,13.15
2023-04-12T00:39:23.322Z,13.05
2023-04-12T00:41:49.657Z,12.90
2023-04-12T00:44:17.976Z,15.35
2023-04-12T00:46:46.363Z,14.48
2023-04-12T00:49:13.255Z,15.30
2023-04-12T00:51:39.729Z,14.50
2023-04-12T00:54:06.892Z,14.00
2023-04-12T00:56:34.397Z,15.63
2023-04-12T00:59:02.002Z,16.05
2023-04-12T01:01:28.484Z,17.77
2023-04-12T01:04:00.920Z,16.52
2023-04-12T01:06:46.551Z,17.63
2023-04-12T01:09:40.453Z,16.88
2023-04-12T01:12:48.650Z,15.23
2023-04-12T01:15:16.476Z,15.38
2023-04-12T01:18:08.117Z,15.52
2023-04-12T01:20:48.274Z,14.27
2023-04-12T01:23:28.779Z,14.52
2023-04-12T01:26:02.753Z,14.75
2023-04-12T01:28:33.945Z,15.55
2023-04-12T01:31:04.179Z,14.13
2023-04-12T01:33:31.771Z,13.88
2023-04-12T01:36:00.818Z,13.60
2023-04-12T01:38:27.709Z,13.50
2023-04-12T01:40:54.878Z,15.95
2023-04-12T01:43:21.313Z,15.93
2023-04-12T01:45:47.814Z,14.80
2023-04-12T01:48:14.328Z,14.90
2023-04-12T01:51:04.442Z,13.95
2023-04-12T01:53:54.546Z,13.05
2023-04-12T01:56:22.762Z,13.02
2023-04-12T01:58:53.406Z,14.38
2023-04-12T02:01:19.986Z,14.00
2023-04-12T02:03:49.955Z,13.02
2023-04-12T02:06:20.751Z,14.05
2023-04-12T02:08:47.925Z,13.35
2023-04-12T02:11:14.765Z,12.23
2023-04-12T02:13:41.266Z,11.82
2023-04-12T02:16:10.563Z,12.13
2023-04-12T02:18:37.002Z,10.95
2023-04-12T02:21:03.344Z,11.00
2023-04-12T02:23:29.734Z,11.20
2023-04-12T02:25:56.363Z,11.68
2023-04-12T02:28:23.188Z,10.48
2023-04-12T02:30:53.339Z,11.80
2023-04-12T02:33:25.337Z,11.55
2023-04-12T02:35:52.337Z,11.38
2023-04-12T02:38:18.740Z,10.80
2023-04-12T02:40:45.114Z,9.73
2023-04-12T02:43:11.502Z,9.70
2023-04-12T02:45:38.027Z,10.68
2023-04-12T02:48:05.262Z,9.73
2023-04-12T02:50:31.751Z,10.60
2023-04-12T02:52:58.095Z,10.25
2023-04-12T02:55:25.647Z,11.60
2023-04-12T02:57:52.069Z,11.88
2023-04-12T03:00:18.619Z,12.25
2023-04-12T03:02:45.232Z,13.57
2023-04-12T03:05:12.333Z,14.13
2023-04-12T03:07:38.733Z,14.05
2023-04-12T03:10:07.343Z,13.00
2023-04-12T03:12:33.734Z,12.07
2023-04-12T03:15:00.083Z,12.52
2023-04-12T03:17:26.567Z,12.02
2023-04-12T03:19:52.966Z,11.68
2023-04-12T03:22:19.324Z,11.77
2023-04-12T03:24:46.514Z,12.82
2023-04-12T03:27:12.963Z,12.45
2023-04-12T03:29:39.396Z,10.90
2023-04-12T03:32:05.952Z,11.93
2023-04-12T03:34:32.509Z,10.70
2023-04-12T03:37:00.883Z,11.55
2023-04-12T03:39:27.644Z,12.00
2023-04-12T03:41:54.304Z,11.13
2023-04-12T03:44:21.288Z,11.45
2023-04-12T03:46:48.672Z,11.98
2023-04-12T03:49:16.464Z,11.25
2023-04-12T03:51:43.473Z,11.30
2023-04-12T03:54:11.288Z,11.60
2023-04-12T03:56:38.457Z,11.88
2023-04-12T03:59:07.682Z,13.30
2023-04-12T04:01:34.888Z,13.52
2023-04-12T04:04:02.159Z,14.85
2023-04-12T04:06:29.773Z,16.10
2023-04-12T04:08:57.243Z,19.20
2023-04-12T04:11:24.872Z,20.15
2023-04-12T04:13:51.796Z,21.00
2023-04-12T04:16:18.268Z,25.13
2023-04-12T04:18:44.778Z,22.58
2023-04-12T04:21:11.138Z,21.02
2023-04-12T04:23:40.627Z,21.17
2023-04-12T04:26:10.537Z,27.42
2023-04-12T04:28:44.926Z,31.70
2023-04-12T04:31:12.962Z,31.40
2023-04-12T04:33:40.151Z,35.38
2023-04-12T04:36:09.893Z,37.22
2023-04-12T04:38:36.315Z,37.78
2023-04-12T04:41:03.322Z,39.88
2023-04-12T04:43:30.745Z,43.25
2023-04-12T04:45:58.194Z,43.50
2023-04-12T04:48:24.881Z,40.55
2023-04-12T04:50:54.258Z,40.53
2023-04-12T04:53:22.323Z,47.67
2023-04-12T04:55:48.981Z,46.13
2023-04-12T04:58:16.495Z,50.28
2023-04-12T05:00:44.842Z,47.28
2023-04-12T05:03:11.874Z,47.30
2023-04-12T05:05:38.469Z,48.47
2023-04-12T05:08:05.523Z,54.80
2023-04-12T05:10:31.922Z,56.50
2023-04-12T05:12:58.245Z,54.08
2023-04-12T05:15:24.568Z,57.58
2023-04-12T05:17:51.139Z,58.58
2023-04-12T05:20:18.358Z,56.65
2023-04-12T05:22:44.833Z,60.80
2023-04-12T05:25:13.816Z,62.67
2023-04-12T05:27:40.231Z,61.40
2023-04-12T05:30:07.961Z,69.35
2023-04-12T05:32:36.736Z,68.43
2023-04-12T05:35:03.411Z,71.72
2023-04-12T05:37:32.049Z,67.72
2023-04-12T05:40:01.157Z,67.28
2023-04-12T05:42:28.537Z,73.28
2023-04-12T05:44:56.380Z,84.63
2023-04-12T05:47:22.831Z,74.30
2023-04-12T05:49:49.535Z,79.05
2023-04-12T05:52:18.729Z,76.88
2023-04-12T05:54:45.178Z,80.05
2023-04-12T05:57:12.394Z,85.70
2023-04-12T05:59:41.022Z,76.80
2023-04-12T06:02:08.668Z,81.38
2023-04-12T06:04:49.249Z,73.05
2023-04-12T06:07:18.951Z,73.80
2023-04-12T06:09:45.484Z,72.45
2023-04-12T06:12:11.942Z,72.82
2023-04-12T06:14:38.355Z,81.00
2023-04-12T06:17:04.811Z,78.65
2023-04-12T06:19:31.347Z,81.53
2023-04-12T06:21:57.730Z,83.45
2023-04-12T06:24:24.103Z,86.80
2023-04-12T06:26:50.607Z,87.63
2023-04-12T06:29:21.505Z,85.93
2023-04-12T06:31:48.392Z,74.60
2023-04-12T06:34:15.877Z,77.90
2023-04-12T06:36:43.454Z,83.65
2023-04-12T06:39:11.949Z,84.82
2023-04-12T06:41:38.352Z,89.90
2023-04-12T06:44:06.227Z,79.35
2023-04-12T06:46:32.677Z,80.65
2023-04-12T06:48:59.337Z,81.88
2023-04-12T06:51:26.009Z,84.05
2023-04-12T06:53:56.121Z,88.75
2023-04-12T06:56:22.502Z,85.60
2023-04-12T06:58:48.974Z,95.60
2023-04-12T07:01:17.762Z,91.80
2023-04-12T07:03:44.456Z,92.18
2023-04-12T07:06:23.724Z,94.32
2023-04-12T07:08:51.219Z,87.78
2023-04-12T07:11:21.547Z,98.97
2023-04-12T07:13:51.358Z,94.80
2023-04-12T07:16:18.461Z,91.72
2023-04-12T07:18:48.342Z,86.32
2023-04-12T07:21:17.243Z,91.82
2023-04-12T07:23:46.815Z,90.45
2023-04-12T07:26:13.247Z,87.25
2023-04-12T07:29:13.279Z,97.00
2023-04-12T07:31:39.792Z,89.80
2023-04-12T07:37:17.920Z,87.43
2023-04-12T07:43:31.294Z,72.95
2023-04-12T07:47:01.283Z,91.13
2023-04-12T07:53:52.520Z,78.07
2023-04-12T08:15:33.982Z,82.22
2023-04-12T08:18:01.315Z,115.45
2023-04-12T08:20:27.848Z,127.55
2023-04-12T08:22:54.864Z,141.13
2023-04-12T08:25:22.070Z,163.57
2023-04-12T08:27:49.802Z,154.57
2023-04-12T08:30:19.480Z,170.98
2023-04-12T08:36:52.894Z,130.38
2023-04-12T08:39:24.253Z,158.77
2023-04-12T08:45:38.175Z,150.48
2023-04-12T08:48:05.825Z,207.10
2023-04-12T08:50:32.538Z,241.52
2023-04-12T08:52:59.593Z,282.92
2023-04-12T08:55:26.248Z,303.88
2023-04-12T08:57:59.831Z,320.48
2023-04-12T09:00:32.269Z,351.92
2023-04-12T09:02:58.964Z,334.90
2023-04-12T09:05:50.231Z,341.88
2023-04-12T09:08:17.546Z,284.17
2023-04-12T09:10:44.104Z,316.80
2023-04-12T09:13:10.638Z,295.48
2023-04-12T09:15:47.650Z,338.48
2023-04-12T09:18:17.141Z,332.73
2023-04-12T09:20:43.820Z,350.23
2023-04-12T09:23:21.448Z,375.85
2023-04-12T09:25:50.181Z,290.73
2023-04-12T09:28:27.940Z,256.88
2023-04-12T09:30:56.229Z,247.85
2023-04-12T09:33:38.145Z,163.80
2023-04-12T09:36:14.222Z,125.57
2023-04-12T09:38:43.012Z,113.50
2023-04-12T09:41:21.517Z,85.13
2023-04-12T09:43:50.311Z,67.93
2023-04-12T09:46:16.961Z,76.03
2023-04-12T09:48:51.700Z,63.97
2023-04-12T09:51:51.472Z,54.53
2023-04-12T09:54:18.440Z,55.97
2023-04-12T09:56:45.696Z,56.13
2023-04-12T09:59:14.146Z,54.15
2023-04-12T10:01:41.756Z,49.05
2023-04-12T10:04:10.179Z,45.30
2023-04-12T10:06:41.264Z,38.55
2023-04-12T10:09:08.906Z,39.85
2023-04-12T10:11:35.777Z,37.55
2023-04-12T10:14:03.205Z,31.38
2023-04-12T10:16:30.804Z,33.03
2023-04-12T10:19:02.188Z,25.95
2023-04-12T10:21:28.907Z,26.45
2023-04-12T10:23:55.631Z,25.95
2023-04-12T10:26:22.083Z,25.52
2023-04-12T10:29:25.330Z,22.80
2023-04-12T10:31:53.059Z,18.15
2023-04-12T10:34:24.791Z,25.90
2023-04-12T10:36:53.526Z,26.58
2023-04-12T10:39:45.118Z,24.02
2023-04-12T10:42:29.209Z,21.05
2023-04-12T10:45:51.738Z,23.95
2023-04-12T10:48:34.861Z,22.80
2023-04-12T10:51:28.644Z,20.20
2023-04-12T10:54:07.390Z,20.70
2023-04-12T10:56:41.342Z,17.90
2023-04-12T10:59:12.239Z,12.32
2023-04-12T11:01:40.469Z,12.82
2023-04-12T11:04:08.203Z,11.88
2023-04-12T11:06:53.504Z,14.95
2023-04-12T11:09:30.060Z,11.95
2023-04-12T11:12:06.497Z,13.48
2023-04-12T11:14:35.066Z,13.35
2023-04-12T11:17:14.533Z,11.27
2023-04-12T11:19:45.185Z,14.50
2023-04-12T11:22:13.956Z,12.70
2023-04-12T11:24:41.229Z,10.82
2023-04-12T11:27:10.421Z,11.27
2023-04-12T11:29:36.925Z,11.50
2023-04-12T11:32:04.724Z,16.83
2023-04-12T11:34:35.431Z,13.23
2023-04-12T11:37:07.946Z,13.88
2023-04-12T11:39:39.528Z,13.07
2023-04-12T11:42:08.646Z,17.23
2023-04-12T11:44:55.127Z,15.55
2023-04-12T11:47:24.238Z,14.27
2023-04-12T11:49:55.617Z,15.32
2023-04-12T11:52:31.258Z,12.68
2023-04-12T11:55:01.403Z,12.82
2023-04-12T11:57:28.992Z,9.52
2023-04-12T11:59:57.492Z,12.00
2023-04-12T12:02:27.661Z,14.48
2023-04-12T12:04:57.194Z,9.10
2023-04-12T12:07:26.766Z,9.52
2023-04-12T12:09:53.978Z,16.48
2023-04-12T12:12:23.994Z,13.93
2023-04-12T12:14:50.582Z,11.95
2023-04-12T12:17:17.420Z,11.48
2023-04-12T12:19:46.246Z,10.02
2023-04-12T12:22:20.305Z,9.77
2023-04-12T12:24:55.748Z,11.35
2023-04-12T12:27:24.108Z,15.90
2023-04-12T12:30:01.124Z,12.73
2023-04-12T12:32:37.903Z,14.38
2023-04-12T12:38:39.285Z,13.20
2023-04-12T12:41:14.639Z,15.02
2023-04-12T12:43:47.728Z,11.18
2023-04-12T12:46:14.967Z,9.55
2023-04-12T12:48:42.027Z,11.07
2023-04-12T12:51:09.841Z,11.63
2023-04-12T12:53:36.882Z,9.70
2023-04-12T12:56:03.334Z,11.30
2023-04-12T12:58:30.291Z,11.38
2023-04-12T13:00:56.702Z,10.40
2023-04-12T13:03:23.489Z,14.10
2023-04-12T13:05:50.740Z,13.25
2023-04-12T13:08:19.381Z,12.90
2023-04-12T13:10:45.848Z,13.13
2023-04-12T13:13:12.242Z,13.52
2023-04-12T13:15:38.869Z,10.57
2023-04-12T13:18:05.591Z,14.35
2023-04-12T13:20:31.973Z,14.30
2023-04-12T13:22:59.007Z,15.85
2023-04-12T13:25:26.622Z,8.55
2023-04-12T13:27:53.135Z,12.15
2023-04-12T13:30:20.115Z,16.38
2023-04-12T13:32:46.820Z,20.25
2023-04-12T13:35:13.708Z,31.45
2023-04-12T13:37:40.382Z,37.10
2023-04-12T13:40:09.109Z,55.30
2023-04-12T13:42:35.642Z,45.72
2023-04-12T13:45:03.795Z,41.00
2023-04-12T13:47:31.431Z,44.53
2023-04-12T13:49:58.084Z,42.15
2023-04-12T13:52:24.552Z,41.47
2023-04-12T13:54:51.535Z,35.78
2023-04-12T13:57:18.180Z,36.63
2023-04-12T13:59:47.205Z,45.03
2023-04-12T14:02:17.360Z,48.25
2023-04-12T14:04:55.139Z,44.75
2023-04-12T14:07:21.820Z,36.10
2023-04-12T14:09:48.860Z,36.92
2023-04-12T14:12:15.683Z,30.20
2023-04-12T14:14:42.397Z,23.02
2023-04-12T14:17:08.922Z,27.92
2023-04-12T14:19:36.063Z,31.23
2023-04-12T14:22:02.660Z,21.33
2023-04-12T14:24:29.183Z,17.88
2023-04-12T14:26:57.090Z,9.85
2023-04-12T14:29:23.577Z,6.82
2023-04-12T14:31:50.243Z,7.65
2023-04-12T14:34:16.702Z,9.45
2023-04-12T14:36:47.364Z,8.68
2023-04-12T14:39:14.926Z,9.43
2023-04-12T14:41:50.706Z,7.53
2023-04-12T14:44:19.614Z,6.60
2023-04-12T14:46:47.003Z,5.45
2023-04-12T14:49:14.259Z,6.63
2023-04-12T14:51:41.134Z,5.78
2023-04-12T14:54:07.744Z,9.45
2023-04-12T14:56:40.987Z,17.20
2023-04-12T14:59:11.619Z,17.25
2023-04-12T15:01:44.434Z,11.18
2023-04-12T15:04:11.305Z,6.95
2023-04-12T15:06:44.647Z,6.78
2023-04-12T15:09:11.474Z,5.82
2023-04-12T15:11:39.927Z,6.75
2023-04-12T15:14:09.949Z,5.88
2023-04-12T15:16:36.602Z,7.70
2023-04-12T15:19:10.751Z,8.35
2023-04-12T15:21:43.533Z,7.35
2023-04-12T15:24:09.994Z,7.97
2023-04-12T15:26:39.243Z,6.78
2023-04-12T15:29:06.931Z,6.60
2023-04-12T15:31:33.410Z,6.30
2023-04-12T15:34:02.649Z,6.35
2023-04-12T15:36:34.173Z,5.45
2023-04-12T15:39:01.715Z,5.93
2023-04-12T15:41:33.984Z,6.20
2023-04-12T15:44:00.648Z,5.90
2023-04-12T15:46:27.253Z,6.10
2023-04-12T15:48:53.746Z,6.05
2023-04-12T15:51:20.200Z,6.38
2023-04-12T15:53:46.674Z,6.70
2023-04-12T15:56:15.346Z,6.63
2023-04-12T15:58:43.100Z,6.78
2023-04-12T16:01:10.290Z,7.18
2023-04-12T16:03:37.324Z,7.60
2023-04-12T16:06:05.334Z,6.22
2023-04-12T16:08:31.876Z,6.88
2023-04-12T16:10:58.744Z,4.63
2023-04-12T16:13:25.317Z,5.25
2023-04-12T16:15:52.363Z,6.05
2023-04-12T16:18:18.933Z,4.95
2023-04-12T16:20:45.393Z,5.18
2023-04-12T16:23:11.908Z,4.95
2023-04-12T16:25:48.666Z,6.40
2023-04-12T16:28:17.948Z,6.07
2023-04-12T16:30:44.468Z,4.85
2023-04-12T16:33:11.226Z,5.07
2023-04-12T16:35:38.421Z,4.45
2023-04-12T16:38:05.108Z,4.80
2023-04-12T16:40:31.731Z,4.15
2023-04-12T16:42:58.152Z,4.50
2023-04-12T16:45:25.002Z,5.13
2023-04-12T16:47:51.515Z,4.78
2023-04-12T16:50:18.058Z,4.55
2023-04-12T16:52:44.534Z,4.70
2023-04-12T16:55:12.466Z,4.75
2023-04-12T16:57:40.935Z,4.53
2023-04-12T17:00:22.163Z,5.53
2023-04-12T17:02:50.460Z,5.95
2023-04-12T17:05:17.927Z,5.53
2023-04-12T17:07:50.562Z,5.65
2023-04-12T17:10:18.421Z,5.88
2023-04-12T17:12:50.298Z,5.70
2023-04-12T17:15:18.163Z,5.50
2023-04-12T17:17:52.556Z,6.20
2023-04-12T17:20:22.067Z,5.28
2023-04-12T17:22:49.770Z,5.80
2023-04-12T17:25:18.217Z,5.32
2023-04-12T17:27:47.909Z,6.00
2023-04-12T17:30:16.567Z,4.95
2023-04-12T17:32:45.285Z,4.78
2023-04-12T17:35:13.049Z,5.63
2023-04-12T17:37:39.684Z,5.43
2023-04-12T17:40:07.919Z,4.93
2023-04-12T17:42:34.382Z,4.72
2023-04-12T17:45:01.081Z,5.70
2023-04-12T17:47:27.563Z,4.82
2023-04-12T17:49:54.101Z,4.93
2023-04-12T17:52:20.748Z,6.85
2023-04-12T17:54:47.222Z,7.05
2023-04-12T17:57:13.648Z,8.10
2023-04-12T17:59:40.076Z,7.53
2023-04-12T18:02:06.852Z,5.80
2023-04-12T18:04:33.829Z,6.40
2023-04-12T18:07:01.245Z,8.88
2023-04-12T18:09:28.446Z,6.07
2023-04-12T18:11:54.865Z,9.82
2023-04-12T18:14:21.302Z,8.73
2023-04-12T18:16:48.092Z,10.27
2023-04-12T18:19:16.464Z,8.95
2023-04-12T18:21:46.945Z,8.00
2023-04-12T18:24:13.387Z,8.73
2023-04-12T18:26:39.860Z,7.88
2023-04-12T18:29:06.443Z,6.78
2023-04-12T18:31:32.966Z,6.68
2023-04-12T18:33:59.479Z,6.40
2023-04-12T18:36:27.132Z,5.68
2023-04-12T18:38:53.497Z,6.25
2023-04-12T18:41:19.900Z,7.25
2023-04-12T18:43:46.508Z,6.70
2023-04-12T18:46:17.636Z,6.60
2023-04-12T18:48:45.700Z,6.25
2023-04-12T18:51:12.979Z,6.57
2023-04-12T18:53:39.342Z,6.25
2023-04-12T18:56:13.656Z,6.45
2023-04-12T19:01:22.038Z,6.60
2023-04-12T19:03:48.722Z,6.68
2023-04-12T19:06:15.347Z,6.47
2023-04-12T19:08:43.064Z,6.82
2023-04-12T19:11:09.712Z,7.93
2023-04-12T19:13:37.065Z,7.63
2023-04-12T19:16:07.315Z,6.70
2023-04-12T19:18:34.325Z,5.72
2023-04-12T19:21:01.898Z,6.07
2023-04-12T19:23:29.066Z,5.53
2023-04-12T19:25:57.457Z,5.63
2023-04-12T19:28:24.447Z,6.00
2023-04-12T19:30:51.036Z,6.38
2023-04-12T19:33:18.173Z,5.85
2023-04-12T19:35:44.569Z,5.78
2023-04-12T19:38:10.934Z,6.53
2023-04-12T19:40:37.555Z,9.18
2023-04-12T19:43:04.508Z,15.77
2023-04-12T19:45:31.218Z,20.17
2023-04-12T19:47:57.830Z,41.90
2023-04-12T19:50:25.914Z,44.25
2023-04-12T19:52:52.645Z,46.20
2023-04-12T19:55:21.289Z,54.35
2023-04-12T19:57:47.838Z,56.70
2023-04-12T20:00:22.570Z,59.75
2023-04-12T20:02:51.148Z,55.45
2023-04-12T20:05:17.859Z,52.80
2023-04-12T20:07:44.421Z,52.95
2023-04-12T20:10:11.856Z,57.65
2023-04-12T20:12:38.513Z,55.60
2023-04-12T20:15:08.196Z,49.80
2023-04-12T20:17:47.949Z,49.10
2023-04-12T20:20:15.440Z,47.00
2023-04-12T20:22:43.534Z,41.95
2023-04-12T20:25:14.498Z,49.25
2023-04-12T20:27:41.105Z,42.03
2023-04-12T20:30:08.937Z,39.85
2023-04-12T20:32:36.030Z,41.58
2023-04-12T20:35:06.452Z,43.42
2023-04-12T20:37:33.686Z,37.05
2023-04-12T20:40:00.746Z,38.10
2023-04-12T20:42:30.854Z,41.60
2023-04-12T20:44:57.431Z,37.83
2023-04-12T20:47:23.932Z,40.58
2023-04-12T20:49:50.686Z,42.38
2023-04-12T20:52:20.428Z,37.05
2023-04-12T20:54:48.276Z,39.30
2023-04-12T20:57:19.597Z,36.90
2023-04-12T20:59:46.679Z,35.50
2023-04-12T21:02:15.325Z,22.38
2023-04-12T21:04:42.006Z,27.08
2023-04-12T21:07:11.608Z,25.27
2023-04-12T21:09:38.660Z,26.25
2023-04-12T21:12:08.264Z,33.22
2023-04-12T21:14:36.097Z,17.90
2023-04-12T21:17:06.630Z,16.13
2023-04-12T21:19:41.670Z,15.63
2023-04-12T21:22:10.427Z,18.60
2023-04-12T21:24:38.607Z,19.35
2023-04-12T21:27:09.564Z,15.10
2023-04-12T21:29:41.336Z,16.25
2023-04-12T21:32:08.854Z,18.55
2023-04-12T21:34:36.995Z,16.88
2023-04-12T21:37:04.166Z,16.13
2023-04-12T21:39:30.983Z,15.90
2023-04-12T21:41:58.119Z,13.75
2023-04-12T21:44:25.354Z,12.82
2023-04-12T21:46:51.874Z,13.00
2023-04-12T21:49:18.362Z,12.63
2023-04-12T21:51:46.355Z,13.95
2023-04-12T21:54:12.866Z,12.70
2023-04-12T21:56:39.321Z,13.90
2023-04-12T21:59:06.968Z,13.63
2023-04-12T22:01:33.938Z,12.55
2023-04-12T22:04:02.580Z,13.40
2023-04-12T22:06:30.362Z,13.77
2023-04-12T22:08:57.147Z,13.52
2023-04-12T22:11:23.709Z,13.80
2023-04-12T22:13:50.169Z,14.02
2023-04-12T22:16:16.864Z,15.50
2023-04-12T22:18:48.110Z,15.20
2023-04-12T22:21:15.260Z,13.40
2023-04-12T22:23:41.623Z,11.07
2023-04-12T22:26:08.667Z,11.00
2023-04-12T22:28:37.798Z,9.65
2023-04-12T22:31:05.725Z,7.05
2023-04-12T22:33:32.308Z,7.53
2023-04-12T22:35:58.859Z,8.40
2023-04-12T22:38:25.407Z,9.00
2023-04-12T22:40:54.561Z,9.73
2023-04-12T22:43:22.742Z,9.52
2023-04-12T22:45:49.116Z,7.93
2023-04-12T22:48:15.528Z,7.85
2023-04-12T22:50:44.682Z,9.60
2023-04-12T22:53:11.450Z,8.07
2023-04-12T22:55:42.115Z,9.63
2023-04-12T22:58:08.530Z,8.73
2023-04-12T23:00:35.175Z,7.93
2023-04-12T23:03:05.417Z,8.07
2023-04-12T23:05:31.963Z,6.53
2023-04-12T23:07:58.961Z,6.85
2023-04-12T23:10:25.407Z,6.60
2023-04-12T23:12:53.434Z,7.38
2023-04-12T23:15:20.531Z,6.60
2023-04-12T23:17:49.791Z,6.95
2023-04-12T23:20:17.065Z,6.68
2023-04-12T23:22:57.937Z,6.70
2023-04-12T23:25:41.525Z,6.35
2023-04-12T23:28:12.538Z,6.25
2023-04-12T23:30:42.546Z,6.45
2023-04-12T23:33:09.396Z,7.22
2023-04-12T23:35:39.253Z,5.75
2023-04-12T23:38:05.739Z,5.55
2023-04-12T23:40:32.093Z,6.30
2023-04-12T23:42:58.590Z,5.78
2023-04-12T23:45:24.975Z,5.90
2023-04-12T23:47:51.611Z,6.05
2023-04-12T23:50:18.142Z,6.07
2023-04-12T23:52:44.885Z,5.90
2023-04-12T23:55:11.251Z,6.30
2023-04-12T23:57:37.679Z,5.93
